sensor_id;sensor_type;location;lat;lon;timestamp;pressure;altitude;pressure_sealevel;temperature;humidity
18697;BME280;22617;43.690;27.956;2023-04-07T00:03:32;98652.84;;;4.31;67.07
18697;BME280;22617;43.690;27.956;2023-04-07T00:08:36;98658.69;;;4.21;67.71
18697;BME280;22617;43.690;27.956;2023-04-07T00:13:40;98667.28;;;4.20;67.41
18697;BME280;22617;43.690;27.956;2023-04-07T00:18:45;98666.50;;;4.26;67.30
18697;BME280;22617;43.690;27.956;2023-04-07T00:23:49;98662.22;;;4.26;68.32
18697;BME280;22617;43.690;27.956;2023-04-07T00:28:53;98676.09;;;4.34;67.54
18697;BME280;22617;43.690;27.956;2023-04-07T00:33:58;98674.38;;;4.35;67.05
18697;BME280;22617;43.690;27.956;2023-04-07T00:39:02;98673.59;;;4.42;67.35
18697;BME280;22617;43.690;27.956;2023-04-07T00:44:05;98674.47;;;4.41;67.18
18697;BME280;22617;43.690;27.956;2023-04-07T00:49:10;98676.13;;;4.37;67.26
18697;BME280;22617;43.690;27.956;2023-04-07T00:54:14;98668.31;;;4.33;67.12
18697;BME280;22617;43.690;27.956;2023-04-07T00:59:18;98670.13;;;4.38;67.75
18697;BME280;22617;43.690;27.956;2023-04-07T01:04:28;98669.25;;;4.38;67.61
18697;BME280;22617;43.690;27.956;2023-04-07T01:09:38;98677.06;;;4.41;66.90
18697;BME280;22617;43.690;27.956;2023-04-07T01:14:47;98673.50;;;4.34;66.44
18697;BME280;22617;43.690;27.956;2023-04-07T01:20:14;98668.44;;;4.42;66.37
18697;BME280;22617;43.690;27.956;2023-04-07T01:25:26;98668.44;;;4.41;65.79
18697;BME280;22617;43.690;27.956;2023-04-07T01:30:38;98668.47;;;4.44;67.04
18697;BME280;22617;43.690;27.956;2023-04-07T01:35:43;98664.16;;;4.43;66.48
18697;BME280;22617;43.690;27.956;2023-04-07T01:40:48;98668.44;;;4.41;67.35
18697;BME280;22617;43.690;27.956;2023-04-07T01:45:55;98657.13;;;4.31;67.99
18697;BME280;22617;43.690;27.956;2023-04-07T01:50:59;98653.84;;;4.41;67.87
18697;BME280;22617;43.690;27.956;2023-04-07T01:56:03;98646.06;;;4.39;68.07
18697;BME280;22617;43.690;27.956;2023-04-07T02:01:12;98662.38;;;4.38;67.90
18697;BME280;22617;43.690;27.956;2023-04-07T02:06:18;98649.63;;;4.48;68.11
18697;BME280;22617;43.690;27.956;2023-04-07T02:11:25;98658.19;;;4.47;67.19
18697;BME280;22617;43.690;27.956;2023-04-07T02:16:36;98660.53;;;4.30;67.49
18697;BME280;22617;43.690;27.956;2023-04-07T02:21:40;98663.16;;;4.33;68.15
18697;BME280;22617;43.690;27.956;2023-04-07T02:26:44;98658.03;;;4.34;68.00
18697;BME280;22617;43.690;27.956;2023-04-07T02:31:50;98657.00;;;4.23;67.95
18697;BME280;22617;43.690;27.956;2023-04-07T02:36:53;98663.75;;;4.15;68.15
18697;BME280;22617;43.690;27.956;2023-04-07T02:41:57;98661.28;;;4.23;68.80
18697;BME280;22617;43.690;27.956;2023-04-07T02:47:04;98663.78;;;4.18;69.79
18697;BME280;22617;43.690;27.956;2023-04-07T02:52:08;98666.38;;;4.18;69.77
18697;BME280;22617;43.690;27.956;2023-04-07T02:57:12;98679.19;;;4.12;69.62
18697;BME280;22617;43.690;27.956;2023-04-07T03:02:17;98684.50;;;4.23;69.60
18697;BME280;22617;43.690;27.956;2023-04-07T03:07:21;98686.38;;;4.31;69.08
18697;BME280;22617;43.690;27.956;2023-04-07T03:12:29;98688.94;;;4.33;69.00
18697;BME280;22617;43.690;27.956;2023-04-07T03:17:33;98695.88;;;4.37;68.41
18697;BME280;22617;43.690;27.956;2023-04-07T03:22:38;98695.84;;;4.34;68.85
18697;BME280;22617;43.690;27.956;2023-04-07T03:27:49;98697.63;;;4.38;68.33
18697;BME280;22617;43.690;27.956;2023-04-07T03:32:55;98703.59;;;4.34;67.60
18697;BME280;22617;43.690;27.956;2023-04-07T03:37:59;98704.44;;;4.33;68.64
18697;BME280;22617;43.690;27.956;2023-04-07T03:43:02;98717.22;;;4.27;69.25
18697;BME280;22617;43.690;27.956;2023-04-07T03:48:08;98728.56;;;4.36;68.46
18697;BME280;22617;43.690;27.956;2023-04-07T03:53:22;98722.53;;;4.34;68.54
18697;BME280;22617;43.690;27.956;2023-04-07T03:58:26;98732.06;;;4.40;68.38
18697;BME280;22617;43.690;27.956;2023-04-07T04:03:32;98732.97;;;4.44;68.29
18697;BME280;22617;43.690;27.956;2023-04-07T04:08:50;98733.88;;;4.46;68.02
18697;BME280;22617;43.690;27.956;2023-04-07T04:13:55;98741.63;;;4.46;68.58
18697;BME280;22617;43.690;27.956;2023-04-07T04:19:00;98745.22;;;4.55;67.98
18697;BME280;22617;43.690;27.956;2023-04-07T04:24:05;98752.88;;;4.52;68.39
18697;BME280;22617;43.690;27.956;2023-04-07T04:29:09;98756.31;;;4.51;68.31
18697;BME280;22617;43.690;27.956;2023-04-07T04:34:16;98757.38;;;4.64;68.62
18697;BME280;22617;43.690;27.956;2023-04-07T04:39:20;98760.97;;;4.73;67.99
18697;BME280;22617;43.690;27.956;2023-04-07T04:44:25;98769.66;;;4.80;67.88
18697;BME280;22617;43.690;27.956;2023-04-07T04:49:30;98767.81;;;4.71;67.77
18697;BME280;22617;43.690;27.956;2023-04-07T04:54:36;98786.97;;;4.84;67.26
18697;BME280;22617;43.690;27.956;2023-04-07T04:59:40;98780.22;;;4.94;68.04
18697;BME280;22617;43.690;27.956;2023-04-07T05:04:44;98794.19;;;5.09;66.83
18697;BME280;22617;43.690;27.956;2023-04-07T05:10:07;98794.16;;;5.06;66.98
18697;BME280;22617;43.690;27.956;2023-04-07T05:15:19;98796.78;;;5.08;67.78
18697;BME280;22617;43.690;27.956;2023-04-07T05:20:26;98792.53;;;5.14;66.67
18697;BME280;22617;43.690;27.956;2023-04-07T05:25:31;98798.72;;;5.22;66.83
18697;BME280;22617;43.690;27.956;2023-04-07T05:30:38;98802.19;;;5.27;68.35
18697;BME280;22617;43.690;27.956;2023-04-07T05:35:44;98807.63;;;5.47;67.34
18697;BME280;22617;43.690;27.956;2023-04-07T05:40:49;98812.91;;;5.55;66.75
18697;BME280;22617;43.690;27.956;2023-04-07T05:45:58;98811.19;;;5.57;66.79
18697;BME280;22617;43.690;27.956;2023-04-07T05:51:03;98815.69;;;5.70;66.70
18697;BME280;22617;43.690;27.956;2023-04-07T05:56:07;98829.75;;;5.89;66.03
18697;BME280;22617;43.690;27.956;2023-04-07T06:01:20;98821.34;;;6.08;66.09
18697;BME280;22617;43.690;27.956;2023-04-07T06:06:25;98824.81;;;6.11;65.99
18697;BME280;22617;43.690;27.956;2023-04-07T06:11:29;98826.66;;;6.22;64.90
18697;BME280;22617;43.690;27.956;2023-04-07T06:16:33;98827.66;;;6.36;65.29
18697;BME280;22617;43.690;27.956;2023-04-07T06:21:38;98830.47;;;6.60;64.61
18697;BME280;22617;43.690;27.956;2023-04-07T06:26:43;98832.16;;;6.55;63.23
18697;BME280;22617;43.690;27.956;2023-04-07T06:31:47;98836.59;;;6.70;63.52
18697;BME280;22617;43.690;27.956;2023-04-07T06:36:54;98826.31;;;6.76;62.74
18697;BME280;22617;43.690;27.956;2023-04-07T06:42:00;98838.47;;;6.84;62.86
18697;BME280;22617;43.690;27.956;2023-04-07T06:47:09;98844.72;;;7.12;62.45
18697;BME280;22617;43.690;27.956;2023-04-07T06:52:14;98851.72;;;7.30;62.04
18697;BME280;22617;43.690;27.956;2023-04-07T06:57:17;98850.94;;;7.38;60.63
18697;BME280;22617;43.690;27.956;2023-04-07T07:02:21;98857.09;;;7.57;60.09
18697;BME280;22617;43.690;27.956;2023-04-07T07:07:26;98858.06;;;7.79;61.30
18697;BME280;22617;43.690;27.956;2023-04-07T07:12:30;98860.84;;;8.20;60.30
18697;BME280;22617;43.690;27.956;2023-04-07T07:17:34;98873.06;;;8.51;58.69
18697;BME280;22617;43.690;27.956;2023-04-07T07:22:39;98875.63;;;8.50;57.76
18697;BME280;22617;43.690;27.956;2023-04-07T07:27:42;98886.94;;;8.61;58.60
18697;BME280;22617;43.690;27.956;2023-04-07T07:32:46;98877.34;;;8.36;56.22
18697;BME280;22617;43.690;27.956;2023-04-07T07:37:51;98882.47;;;8.19;56.91
18697;BME280;22617;43.690;27.956;2023-04-07T07:42:54;98885.94;;;8.27;57.65
18697;BME280;22617;43.690;27.956;2023-04-07T07:47:58;98882.56;;;8.43;58.28
18697;BME280;22617;43.690;27.956;2023-04-07T07:53:03;98886.03;;;8.50;57.39
18697;BME280;22617;43.690;27.956;2023-04-07T07:58:07;98894.59;;;8.26;56.44
18697;BME280;22617;43.690;27.956;2023-04-07T08:03:11;98899.03;;;8.48;58.00
18697;BME280;22617;43.690;27.956;2023-04-07T08:08:16;98883.50;;;8.91;57.12
18697;BME280;22617;43.690;27.956;2023-04-07T08:13:20;98885.97;;;9.83;56.79
18697;BME280;22617;43.690;27.956;2023-04-07T08:18:23;98892.09;;;9.59;53.73
18697;BME280;22617;43.690;27.956;2023-04-07T08:23:28;98895.47;;;9.98;57.23
18697;BME280;22617;43.690;27.956;2023-04-07T08:28:32;98878.84;;;10.37;53.68
18697;BME280;22617;43.690;27.956;2023-04-07T08:33:35;98884.28;;;9.78;54.37
18697;BME280;22617;43.690;27.956;2023-04-07T08:38:42;98885.13;;;9.75;55.46
18697;BME280;22617;43.690;27.956;2023-04-07T08:43:46;98893.78;;;9.92;55.70
18697;BME280;22617;43.690;27.956;2023-04-07T08:48:51;98884.94;;;10.37;54.92
18697;BME280;22617;43.690;27.956;2023-04-07T08:54:04;98898.88;;;10.27;55.40
18697;BME280;22617;43.690;27.956;2023-04-07T08:59:11;98904.19;;;9.97;54.91
18697;BME280;22617;43.690;27.956;2023-04-07T09:04:15;98908.50;;;9.98;56.79
18697;BME280;22617;43.690;27.956;2023-04-07T09:09:21;98907.34;;;10.66;54.16
18697;BME280;22617;43.690;27.956;2023-04-07T09:14:25;98905.66;;;11.70;51.96
18697;BME280;22617;43.690;27.956;2023-04-07T09:19:29;98906.94;;;11.26;52.69
18697;BME280;22617;43.690;27.956;2023-04-07T09:24:34;98914.44;;;11.61;54.46
18697;BME280;22617;43.690;27.956;2023-04-07T09:29:38;98913.34;;;11.88;52.94
18697;BME280;22617;43.690;27.956;2023-04-07T09:34:43;98918.72;;;11.67;51.95
18697;BME280;22617;43.690;27.956;2023-04-07T09:39:51;98913.81;;;11.33;52.98
18697;BME280;22617;43.690;27.956;2023-04-07T09:44:55;98913.06;;;11.21;53.50
18697;BME280;22617;43.690;27.956;2023-04-07T09:49:59;98917.72;;;10.78;54.19
18697;BME280;22617;43.690;27.956;2023-04-07T09:55:09;98919.38;;;10.91;53.56
18697;BME280;22617;43.690;27.956;2023-04-07T10:00:14;98916.72;;;10.96;53.91
18697;BME280;22617;43.690;27.956;2023-04-07T10:05:18;98930.66;;;10.91;53.29
18697;BME280;22617;43.690;27.956;2023-04-07T10:10:25;98931.81;;;10.42;53.67
18697;BME280;22617;43.690;27.956;2023-04-07T10:15:29;98934.47;;;10.30;54.44
18697;BME280;22617;43.690;27.956;2023-04-07T10:20:33;98937.03;;;10.40;53.86
18697;BME280;22617;43.690;27.956;2023-04-07T10:25:40;98928.91;;;10.95;55.24
18697;BME280;22617;43.690;27.956;2023-04-07T10:30:47;98938.25;;;11.23;53.29
18697;BME280;22617;43.690;27.956;2023-04-07T10:36:04;98929.63;;;11.15;52.80
18697;BME280;22617;43.690;27.956;2023-04-07T10:41:32;98946.03;;;11.31;52.71
18697;BME280;22617;43.690;27.956;2023-04-07T10:47:01;98946.47;;;11.80;53.16
18697;BME280;22617;43.690;27.956;2023-04-07T10:52:22;98946.00;;;12.26;53.13
18697;BME280;22617;43.690;27.956;2023-04-07T10:57:27;98939.53;;;12.55;51.78
18697;BME280;22617;43.690;27.956;2023-04-07T11:02:32;98939.28;;;12.75;51.30
18697;BME280;22617;43.690;27.956;2023-04-07T11:07:48;98945.19;;;12.89;50.48
18697;BME280;22617;43.690;27.956;2023-04-07T11:13:04;98940.97;;;12.76;50.29
18697;BME280;22617;43.690;27.956;2023-04-07T11:18:14;98939.34;;;12.71;49.98
18697;BME280;22617;43.690;27.956;2023-04-07T11:23:19;98951.75;;;11.71;51.90
18697;BME280;22617;43.690;27.956;2023-04-07T11:28:25;98953.78;;;11.38;53.28
18697;BME280;22617;43.690;27.956;2023-04-07T11:33:30;98954.66;;;11.37;52.83
18697;BME280;22617;43.690;27.956;2023-04-07T11:38:37;98956.50;;;11.23;51.68
18697;BME280;22617;43.690;27.956;2023-04-07T11:43:42;98948.59;;;11.34;52.70
18697;BME280;22617;43.690;27.956;2023-04-07T11:48:46;98944.53;;;10.97;53.64
18697;BME280;22617;43.690;27.956;2023-04-07T11:53:54;98930.09;;;11.61;52.71
18697;BME280;22617;43.690;27.956;2023-04-07T11:58:59;98942.13;;;11.82;51.91
18697;BME280;22617;43.690;27.956;2023-04-07T12:04:03;98937.44;;;12.11;52.11
18697;BME280;22617;43.690;27.956;2023-04-07T12:09:08;98942.31;;;11.56;52.21
18697;BME280;22617;43.690;27.956;2023-04-07T12:14:13;98947.28;;;11.87;52.21
18697;BME280;22617;43.690;27.956;2023-04-07T12:19:16;98939.16;;;12.15;51.19
18697;BME280;22617;43.690;27.956;2023-04-07T12:24:20;98941.41;;;11.62;51.84
18697;BME280;22617;43.690;27.956;2023-04-07T12:29:26;98948.31;;;11.69;50.93
18697;BME280;22617;43.690;27.956;2023-04-07T12:34:30;98950.19;;;11.55;51.70
18697;BME280;22617;43.690;27.956;2023-04-07T12:39:35;98952.97;;;11.32;51.64
18697;BME280;22617;43.690;27.956;2023-04-07T12:44:40;98945.84;;;11.55;51.30
18697;BME280;22617;43.690;27.956;2023-04-07T12:49:44;98950.09;;;11.62;53.91
18697;BME280;22617;43.690;27.956;2023-04-07T12:54:50;98955.03;;;10.86;51.07
18697;BME280;22617;43.690;27.956;2023-04-07T12:59:55;98949.03;;;10.73;54.16
18697;BME280;22617;43.690;27.956;2023-04-07T13:04:59;98957.66;;;10.83;54.31
18697;BME280;22617;43.690;27.956;2023-04-07T13:10:05;98955.94;;;10.82;52.42
18697;BME280;22617;43.690;27.956;2023-04-07T13:15:11;98968.97;;;10.82;51.88
18697;BME280;22617;43.690;27.956;2023-04-07T13:20:15;98960.28;;;10.80;51.77
18697;BME280;22617;43.690;27.956;2023-04-07T13:25:22;98962.75;;;11.01;53.64
18697;BME280;22617;43.690;27.956;2023-04-07T13:30:26;98954.81;;;11.21;52.52
18697;BME280;22617;43.690;27.956;2023-04-07T13:35:30;98968.03;;;10.89;52.65
18697;BME280;22617;43.690;27.956;2023-04-07T13:40:37;98959.38;;;10.84;53.49
18697;BME280;22617;43.690;27.956;2023-04-07T13:45:41;98968.00;;;10.93;52.10
18697;BME280;22617;43.690;27.956;2023-04-07T13:50:45;98964.59;;;10.87;52.63
18697;BME280;22617;43.690;27.956;2023-04-07T13:55:49;98967.25;;;10.78;53.45
18697;BME280;22617;43.690;27.956;2023-04-07T14:00:54;98980.31;;;10.70;54.02
18697;BME280;22617;43.690;27.956;2023-04-07T14:05:58;98970.63;;;10.98;53.80
18697;BME280;22617;43.690;27.956;2023-04-07T14:11:02;98976.63;;;11.09;52.12
18697;BME280;22617;43.690;27.956;2023-04-07T14:16:07;98973.97;;;11.15;52.97
18697;BME280;22617;43.690;27.956;2023-04-07T14:21:11;98974.78;;;11.26;52.03
18697;BME280;22617;43.690;27.956;2023-04-07T14:26:14;98969.97;;;11.80;53.67
18697;BME280;22617;43.690;27.956;2023-04-07T14:31:19;98971.53;;;12.01;50.45
18697;BME280;22617;43.690;27.956;2023-04-07T14:36:23;98977.47;;;12.16;51.75
18697;BME280;22617;43.690;27.956;2023-04-07T14:41:26;98978.34;;;12.17;50.39
18697;BME280;22617;43.690;27.956;2023-04-07T14:46:32;98979.97;;;12.27;51.24
18697;BME280;22617;43.690;27.956;2023-04-07T14:51:35;98983.50;;;12.20;51.00
18697;BME280;22617;43.690;27.956;2023-04-07T14:56:39;98982.59;;;12.26;51.96
18697;BME280;22617;43.690;27.956;2023-04-07T15:01:44;98987.16;;;12.05;51.74
18697;BME280;22617;43.690;27.956;2023-04-07T15:06:48;98987.47;;;11.66;52.65
18697;BME280;22617;43.690;27.956;2023-04-07T15:11:51;98984.81;;;11.78;51.28
18697;BME280;22617;43.690;27.956;2023-04-07T15:16:58;98993.72;;;11.47;53.77
18697;BME280;22617;43.690;27.956;2023-04-07T15:22:02;98988.63;;;11.34;53.38
18697;BME280;22617;43.690;27.956;2023-04-07T15:27:07;98991.16;;;11.45;52.14
18697;BME280;22617;43.690;27.956;2023-04-07T15:32:13;98994.97;;;10.97;53.66
18697;BME280;22617;43.690;27.956;2023-04-07T15:37:16;99003.69;;;10.85;58.36
18697;BME280;22617;43.690;27.956;2023-04-07T15:42:20;99016.94;;;10.32;62.60
18697;BME280;22617;43.690;27.956;2023-04-07T15:47:25;99020.47;;;9.92;63.38
18697;BME280;22617;43.690;27.956;2023-04-07T15:52:29;99018.75;;;9.73;64.92
18697;BME280;22617;43.690;27.956;2023-04-07T15:57:33;99034.38;;;9.44;65.93
18697;BME280;22617;43.690;27.956;2023-04-07T16:02:37;99042.97;;;9.26;66.12
18697;BME280;22617;43.690;27.956;2023-04-07T16:07:41;99051.63;;;9.08;67.67
18697;BME280;22617;43.690;27.956;2023-04-07T16:12:45;99054.22;;;9.08;68.13
18697;BME280;22617;43.690;27.956;2023-04-07T16:17:50;99056.78;;;8.98;68.16
18697;BME280;22617;43.690;27.956;2023-04-07T16:22:54;99055.88;;;8.88;68.40
18697;BME280;22617;43.690;27.956;2023-04-07T16:27:57;99074.84;;;8.61;68.37
18697;BME280;22617;43.690;27.956;2023-04-07T16:33:02;99073.16;;;8.71;68.85
18697;BME280;22617;43.690;27.956;2023-04-07T16:38:06;99075.66;;;8.51;68.75
18697;BME280;22617;43.690;27.956;2023-04-07T16:43:10;99085.13;;;8.42;69.66
18697;BME280;22617;43.690;27.956;2023-04-07T16:48:15;99082.41;;;8.28;69.71
18697;BME280;22617;43.690;27.956;2023-04-07T16:53:18;99087.47;;;8.10;69.46
18697;BME280;22617;43.690;27.956;2023-04-07T16:58:22;99102.91;;;7.93;70.12
18697;BME280;22617;43.690;27.956;2023-04-07T17:03:28;99104.53;;;7.80;71.18
18697;BME280;22617;43.690;27.956;2023-04-07T17:08:32;99116.66;;;7.81;72.04
18697;BME280;22617;43.690;27.956;2023-04-07T17:13:36;99126.03;;;7.69;72.72
18697;BME280;22617;43.690;27.956;2023-04-07T17:18:42;99133.84;;;7.70;73.41
18697;BME280;22617;43.690;27.956;2023-04-07T17:23:46;99124.22;;;7.59;74.21
18697;BME280;22617;43.690;27.956;2023-04-07T17:28:50;99143.22;;;7.56;74.70
18697;BME280;22617;43.690;27.956;2023-04-07T17:33:55;99143.16;;;7.53;74.69
18697;BME280;22617;43.690;27.956;2023-04-07T17:38:58;99157.72;;;7.39;74.80
18697;BME280;22617;43.690;27.956;2023-04-07T17:44:04;99156.88;;;7.40;74.51
18697;BME280;22617;43.690;27.956;2023-04-07T17:49:11;99166.41;;;7.41;74.43
18697;BME280;22617;43.690;27.956;2023-04-07T17:54:15;99168.97;;;7.39;74.68
18697;BME280;22617;43.690;27.956;2023-04-07T17:59:18;99180.22;;;7.38;74.66
18697;BME280;22617;43.690;27.956;2023-04-07T18:04:25;99180.88;;;7.22;75.50
18697;BME280;22617;43.690;27.956;2023-04-07T18:09:30;99184.34;;;7.24;75.90
18697;BME280;22617;43.690;27.956;2023-04-07T18:14:33;99190.34;;;7.19;76.04
18697;BME280;22617;43.690;27.956;2023-04-07T18:19:39;99192.09;;;7.21;76.55
18697;BME280;22617;43.690;27.956;2023-04-07T18:24:42;99197.19;;;7.14;76.73
18697;BME280;22617;43.690;27.956;2023-04-07T18:29:46;99216.19;;;7.16;76.96
18697;BME280;22617;43.690;27.956;2023-04-07T18:34:51;99222.25;;;7.16;77.24
18697;BME280;22617;43.690;27.956;2023-04-07T18:39:55;99229.81;;;6.99;77.82
18697;BME280;22617;43.690;27.956;2023-04-07T18:44:59;99222.97;;;7.06;78.58
18697;BME280;22617;43.690;27.956;2023-04-07T18:50:07;99222.25;;;7.16;78.58
18697;BME280;22617;43.690;27.956;2023-04-07T18:55:10;99229.13;;;7.13;78.38
18697;BME280;22617;43.690;27.956;2023-04-07T19:00:14;99229.94;;;7.09;79.04
18697;BME280;22617;43.690;27.956;2023-04-07T19:05:19;99241.00;;;6.97;79.50
18697;BME280;22617;43.690;27.956;2023-04-07T19:10:26;99239.22;;;6.93;80.03
18697;BME280;22617;43.690;27.956;2023-04-07T19:15:31;99234.13;;;7.00;79.92
18697;BME280;22617;43.690;27.956;2023-04-07T19:20:40;99239.31;;;6.99;79.82
18697;BME280;22617;43.690;27.956;2023-04-07T19:25:44;99235.84;;;6.98;80.30
18697;BME280;22617;43.690;27.956;2023-04-07T19:30:47;99233.28;;;7.01;80.46
18697;BME280;22617;43.690;27.956;2023-04-07T19:35:52;99240.94;;;6.92;80.46
18697;BME280;22617;43.690;27.956;2023-04-07T19:40:56;99246.88;;;6.84;80.98
18697;BME280;22617;43.690;27.956;2023-04-07T19:45:59;99246.75;;;6.78;81.01
18697;BME280;22617;43.690;27.956;2023-04-07T19:51:06;99247.47;;;6.68;81.84
18697;BME280;22617;43.690;27.956;2023-04-07T19:56:09;99249.31;;;6.75;81.62
18697;BME280;22617;43.690;27.956;2023-04-07T20:01:15;99251.91;;;6.75;81.74
18697;BME280;22617;43.690;27.956;2023-04-07T20:06:20;99252.63;;;6.65;82.58
18697;BME280;22617;43.690;27.956;2023-04-07T20:11:27;99255.94;;;6.56;82.73
18697;BME280;22617;43.690;27.956;2023-04-07T20:16:31;99255.97;;;6.59;83.06
18697;BME280;22617;43.690;27.956;2023-04-07T20:21:36;99263.94;;;6.73;83.12
18697;BME280;22617;43.690;27.956;2023-04-07T20:26:39;99265.72;;;6.77;82.86
18697;BME280;22617;43.690;27.956;2023-04-07T20:31:43;99274.31;;;6.71;82.61
18697;BME280;22617;43.690;27.956;2023-04-07T20:36:48;99279.53;;;6.74;82.60
18697;BME280;22617;43.690;27.956;2023-04-07T20:41:51;99270.97;;;6.81;81.87
18697;BME280;22617;43.690;27.956;2023-04-07T20:46:55;99276.16;;;6.80;82.09
18697;BME280;22617;43.690;27.956;2023-04-07T20:52:00;99280.50;;;6.82;82.31
18697;BME280;22617;43.690;27.956;2023-04-07T20:57:03;99283.94;;;6.80;82.00
18697;BME280;22617;43.690;27.956;2023-04-07T21:02:07;99278.69;;;6.75;82.37
18697;BME280;22617;43.690;27.956;2023-04-07T21:07:12;99282.88;;;6.69;82.61
18697;BME280;22617;43.690;27.956;2023-04-07T21:12:16;99286.25;;;6.62;82.73
18697;BME280;22617;43.690;27.956;2023-04-07T21:17:19;99282.81;;;6.64;83.44
18697;BME280;22617;43.690;27.956;2023-04-07T21:22:24;99288.00;;;6.64;83.41
18697;BME280;22617;43.690;27.956;2023-04-07T21:27:29;99290.63;;;6.66;83.18
18697;BME280;22617;43.690;27.956;2023-04-07T21:32:32;99282.84;;;6.67;83.50
18697;BME280;22617;43.690;27.956;2023-04-07T21:37:37;99285.50;;;6.72;83.49
18697;BME280;22617;43.690;27.956;2023-04-07T21:42:41;99287.25;;;6.73;83.56
18697;BME280;22617;43.690;27.956;2023-04-07T21:47:44;99295.94;;;6.75;83.54
18697;BME280;22617;43.690;27.956;2023-04-07T21:52:51;99299.34;;;6.71;83.84
18697;BME280;22617;43.690;27.956;2023-04-07T21:57:55;99296.72;;;6.69;83.71
18697;BME280;22617;43.690;27.956;2023-04-07T22:02:59;99305.38;;;6.71;83.62
18697;BME280;22617;43.690;27.956;2023-04-07T22:08:04;99307.97;;;6.71;83.77
18697;BME280;22617;43.690;27.956;2023-04-07T22:13:08;99294.16;;;6.71;83.78
18697;BME280;22617;43.690;27.956;2023-04-07T22:18:11;99306.34;;;6.78;83.61
18697;BME280;22617;43.690;27.956;2023-04-07T22:23:16;99307.25;;;6.81;83.13
18697;BME280;22617;43.690;27.956;2023-04-07T22:28:19;99313.88;;;6.64;83.08
18697;BME280;22617;43.690;27.956;2023-04-07T22:33:23;99310.47;;;6.65;83.78
18697;BME280;22617;43.690;27.956;2023-04-07T22:38:28;99308.69;;;6.61;84.02
18697;BME280;22617;43.690;27.956;2023-04-07T22:43:31;99306.84;;;6.57;84.12
18697;BME280;22617;43.690;27.956;2023-04-07T22:48:35;99304.44;;;6.68;84.08
18697;BME280;22617;43.690;27.956;2023-04-07T22:53:40;99298.53;;;6.75;84.02
18697;BME280;22617;43.690;27.956;2023-04-07T22:58:43;99291.63;;;6.75;83.69
18697;BME280;22617;43.690;27.956;2023-04-07T23:03:47;99301.84;;;6.68;83.47
18697;BME280;22617;43.690;27.956;2023-04-07T23:08:52;99304.22;;;6.54;83.83
18697;BME280;22617;43.690;27.956;2023-04-07T23:13:55;99302.53;;;6.56;84.18
18697;BME280;22617;43.690;27.956;2023-04-07T23:18:59;99295.69;;;6.60;83.86
18697;BME280;22617;43.690;27.956;2023-04-07T23:24:04;99295.72;;;6.61;83.65
18697;BME280;22617;43.690;27.956;2023-04-07T23:29:08;99295.66;;;6.58;83.76
18697;BME280;22617;43.690;27.956;2023-04-07T23:34:11;99288.66;;;6.52;83.62
18697;BME280;22617;43.690;27.956;2023-04-07T23:39:17;99293.66;;;6.42;83.82
18697;BME280;22617;43.690;27.956;2023-04-07T23:44:20;99281.50;;;6.36;83.86
18697;BME280;22617;43.690;27.956;2023-04-07T23:49:24;99287.63;;;6.41;84.13
18697;BME280;22617;43.690;27.956;2023-04-07T23:54:30;99287.56;;;6.38;83.51
18697;BME280;22617;43.690;27.956;2023-04-07T23:59:33;99287.38;;;6.29;83.26
